Campbells Island, Illinois
Current Conditions -  °F | °C
As of 9:52 AM on Wednesday 26 Nov 2014 (Local Time) from KMLI Reporting Station
Haze Haze  
Wind Chill: 15°   Ceiling: 8000
Heat Index: 25°   Visibility: 6mi
Dew Point: 21°   Wind: 10mph
Humidity: 85%   Direction: 100°E
Pressure: 30.07"   Gusts: NA
Location:  41.5228°N, 90.3951°W
Report Text: KMLI 261552Z 10009KT 6SM BR OVC080 M04/M06 A3007 RMK AO2 SLP193 T10391061
Loading
Personal Weather Stations






























Interactive Weather Map New forecast layout! Learn more

10-Day Weather Forecast

Advertisements
Track Severe Weather on mobile